createdAt,value
2019-05-26T00:00:57.928Z,74.08
2019-05-26T00:03:29.203Z,73.17
2019-05-26T00:05:58.840Z,74.40
2019-05-26T00:08:28.674Z,73.70
2019-05-26T00:10:58.282Z,72.17
2019-05-26T00:13:27.849Z,72.83
2019-05-26T00:15:57.480Z,73.89
2019-05-26T00:18:27.565Z,72.22
2019-05-26T00:20:57.127Z,73.59
2019-05-26T00:23:26.869Z,76.08
2019-05-26T00:25:56.523Z,76.29
2019-05-26T00:28:26.143Z,75.48
2019-05-26T00:30:55.821Z,77.32
2019-05-26T00:33:25.395Z,77.17
2019-05-26T00:35:54.957Z,77.05
2019-05-26T00:38:24.548Z,77.69
2019-05-26T00:40:54.244Z,76.94
2019-05-26T00:43:23.864Z,77.05
2019-05-26T00:45:53.510Z,78.27
2019-05-26T00:48:23.291Z,77.93
2019-05-26T00:50:52.976Z,77.74
2019-05-26T00:53:22.695Z,75.19
2019-05-26T00:55:52.396Z,76.14
2019-05-26T00:58:22.032Z,74.71
2019-05-26T01:00:51.751Z,75.55
2019-05-26T01:03:21.459Z,74.49
2019-05-26T01:05:51.091Z,75.43
2019-05-26T01:08:20.841Z,74.79
2019-05-26T01:10:50.838Z,74.08
2019-05-26T01:13:20.670Z,75.25
2019-05-26T01:15:50.409Z,74.73
2019-05-26T01:18:20.110Z,72.61
2019-05-26T01:20:49.817Z,75.04
2019-05-26T01:23:19.562Z,76.73
2019-05-26T01:25:49.207Z,74.60
2019-05-26T01:28:18.819Z,74.99
2019-05-26T01:30:48.559Z,73.65
2019-05-26T01:33:18.261Z,73.85
2019-05-26T01:35:47.964Z,74.00
2019-05-26T01:38:23.881Z,73.78
2019-05-26T01:40:50.201Z,75.98
2019-05-26T01:43:19.846Z,75.43
2019-05-26T01:45:49.607Z,76.38
2019-05-26T01:48:19.186Z,76.38
2019-05-26T01:50:48.801Z,76.67
2019-05-26T01:53:18.552Z,75.98
2019-05-26T01:55:48.187Z,75.87
2019-05-26T01:58:17.817Z,75.52
2019-05-26T02:00:47.741Z,74.68
2019-05-26T02:03:17.431Z,76.83
2019-05-26T02:05:47.135Z,75.97
2019-05-26T02:08:16.728Z,76.75
2019-05-26T02:10:46.343Z,77.09
2019-05-26T02:13:15.893Z,76.50
2019-05-26T02:15:45.703Z,76.54
2019-05-26T02:18:15.400Z,76.14
2019-05-26T02:20:45.022Z,75.41
2019-05-26T02:23:14.760Z,76.39
2019-05-26T02:25:44.387Z,77.14
2019-05-26T02:28:14.033Z,75.66
2019-05-26T02:30:44.045Z,75.98
2019-05-26T02:33:13.993Z,76.04
2019-05-26T02:35:44.031Z,76.61
2019-05-26T02:38:14.105Z,77.70
2019-05-26T02:40:44.113Z,76.18
2019-05-26T02:43:14.452Z,76.09
2019-05-26T02:45:45.402Z,75.15
2019-05-26T02:48:15.433Z,76.05
2019-05-26T02:50:45.182Z,75.02
2019-05-26T02:53:14.912Z,76.24
2019-05-26T02:55:44.602Z,75.92
2019-05-26T02:58:14.375Z,74.81
2019-05-26T03:00:47.731Z,74.87
2019-05-26T03:03:18.032Z,77.98
2019-05-26T03:05:48.005Z,77.74
2019-05-26T03:08:17.890Z,76.74
2019-05-26T03:10:48.491Z,77.55
2019-05-26T03:13:18.494Z,78.03
2019-05-26T03:15:48.320Z,77.75
2019-05-26T03:18:18.333Z,77.84
2019-05-26T03:20:48.048Z,76.77
2019-05-26T03:23:18.254Z,79.58
2019-05-26T03:25:47.963Z,77.96
2019-05-26T03:28:17.494Z,76.77
2019-05-26T03:30:47.163Z,76.67
2019-05-26T03:33:16.903Z,76.23
2019-05-26T03:35:46.515Z,76.23
2019-05-26T03:38:16.089Z,78.32
2019-05-26T03:40:45.845Z,78.21
2019-05-26T03:43:15.557Z,81.90
2019-05-26T03:45:49.824Z,80.57
2019-05-26T03:48:19.385Z,79.09
2019-05-26T03:50:49.033Z,78.40
2019-05-26T03:53:18.626Z,79.62
2019-05-26T03:55:48.184Z,78.23
2019-05-26T03:58:17.740Z,78.38
2019-05-26T04:00:47.356Z,79.76
2019-05-26T04:03:17.050Z,79.98
2019-05-26T04:05:46.811Z,79.93
2019-05-26T04:08:16.432Z,79.52
2019-05-26T04:10:46.057Z,78.95
2019-05-26T04:13:15.755Z,78.59
2019-05-26T04:15:45.375Z,77.38
2019-05-26T04:18:14.956Z,77.57
2019-05-26T04:20:45.980Z,75.80
2019-05-26T04:23:15.926Z,75.63
2019-05-26T04:25:45.640Z,76.98
2019-05-26T04:28:15.267Z,77.73
2019-05-26T04:30:44.877Z,77.37
2019-05-26T04:33:14.575Z,76.83
2019-05-26T04:35:44.296Z,76.88
2019-05-26T04:38:13.902Z,77.05
2019-05-26T04:40:43.541Z,77.41
2019-05-26T04:43:14.965Z,76.89
2019-05-26T04:45:44.729Z,77.61
2019-05-26T04:48:14.277Z,76.47
2019-05-26T04:50:44.043Z,75.71
2019-05-26T04:53:13.732Z,76.36
2019-05-26T04:55:43.379Z,78.54
2019-05-26T04:58:13.031Z,77.81
2019-05-26T05:00:42.644Z,75.47
2019-05-26T05:03:12.239Z,74.91
2019-05-26T05:05:41.873Z,74.79
2019-05-26T05:08:11.558Z,75.48
2019-05-26T05:10:42.906Z,73.84
2019-05-26T05:13:12.716Z,71.56
2019-05-26T05:15:42.335Z,71.14
2019-05-26T05:18:11.951Z,70.61
2019-05-26T05:20:41.775Z,70.93
2019-05-26T05:23:11.386Z,70.75
2019-05-26T05:25:40.944Z,69.11
2019-05-26T05:28:10.516Z,68.01
2019-05-26T05:30:40.254Z,69.09
2019-05-26T05:33:09.949Z,69.73
2019-05-26T05:35:39.565Z,69.85
2019-05-26T05:38:09.395Z,69.36
2019-05-26T05:40:39.179Z,71.26
2019-05-26T05:43:09.115Z,70.44
2019-05-26T05:45:38.955Z,70.80
2019-05-26T05:48:09.316Z,70.30
2019-05-26T05:50:39.557Z,69.81
2019-05-26T05:53:09.312Z,70.04
2019-05-26T05:55:39.021Z,69.03
2019-05-26T05:58:08.844Z,70.30
2019-05-26T06:00:38.481Z,67.47
2019-05-26T06:03:08.957Z,69.71
2019-05-26T06:05:39.018Z,68.38
2019-05-26T06:08:08.758Z,68.91
2019-05-26T06:10:38.380Z,69.42
2019-05-26T06:13:27.529Z,70.01
2019-05-26T06:15:56.389Z,69.74
2019-05-26T06:18:26.103Z,68.69
2019-05-26T06:20:56.055Z,67.67
2019-05-26T06:23:25.676Z,66.74
2019-05-26T06:25:55.325Z,65.81
2019-05-26T06:28:25.100Z,65.88
2019-05-26T06:30:54.747Z,66.98
2019-05-26T06:33:24.301Z,63.55
2019-05-26T06:35:54.268Z,65.71
2019-05-26T06:38:24.053Z,64.26
2019-05-26T06:40:53.611Z,62.88
2019-05-26T06:43:23.336Z,61.10
2019-05-26T06:45:52.982Z,64.10
2019-05-26T06:48:26.384Z,59.74
2019-05-26T06:50:54.137Z,61.85
2019-05-26T06:53:23.759Z,59.71
2019-05-26T06:55:53.467Z,57.00
2019-05-26T06:58:23.304Z,54.94
2019-05-26T07:00:53.083Z,54.84
2019-05-26T07:03:22.914Z,55.03
2019-05-26T07:05:52.607Z,54.27
2019-05-26T07:08:22.324Z,55.27
2019-05-26T07:10:52.069Z,55.24
2019-05-26T07:13:21.875Z,54.55
2019-05-26T07:15:52.015Z,54.71
2019-05-26T07:18:21.579Z,54.12
2019-05-26T07:20:51.298Z,56.35
2019-05-26T07:23:21.035Z,56.96
2019-05-26T07:25:50.777Z,55.11
2019-05-26T07:28:20.654Z,56.04
2019-05-26T07:30:50.361Z,52.86
2019-05-26T07:33:20.176Z,51.92
2019-05-26T07:35:50.147Z,52.98
2019-05-26T07:38:19.905Z,49.38
2019-05-26T07:40:49.787Z,47.36
2019-05-26T07:43:19.617Z,49.12
2019-05-26T07:45:49.380Z,49.29
2019-05-26T07:48:19.091Z,48.62
2019-05-26T07:50:49.631Z,51.89
2019-05-26T07:53:19.906Z,48.00
2019-05-26T07:55:49.794Z,48.60
2019-05-26T07:58:19.648Z,47.92
2019-05-26T08:00:49.439Z,47.38
2019-05-26T08:03:19.194Z,48.88
2019-05-26T08:05:49.148Z,49.72
2019-05-26T08:08:18.796Z,48.12
2019-05-26T08:10:48.607Z,47.85
2019-05-26T08:13:18.485Z,47.11
2019-05-26T08:15:48.185Z,45.91
2019-05-26T08:18:17.827Z,47.80
2019-05-26T08:20:47.505Z,44.89
2019-05-26T08:23:17.160Z,46.16
2019-05-26T08:25:46.821Z,45.35
2019-05-26T08:28:16.499Z,46.92
2019-05-26T08:30:46.062Z,46.69
2019-05-26T08:33:15.683Z,46.33
2019-05-26T08:35:45.415Z,45.85
2019-05-26T08:38:15.376Z,46.02
2019-05-26T08:40:45.081Z,46.49
2019-05-26T08:43:14.886Z,44.35
2019-05-26T08:45:44.602Z,43.56
2019-05-26T08:48:14.251Z,44.79
2019-05-26T08:50:44.446Z,41.94
2019-05-26T08:53:14.665Z,46.13
2019-05-26T08:55:45.336Z,44.97
2019-05-26T08:58:15.132Z,36.06
2019-05-26T09:00:45.041Z,32.55
2019-05-26T09:03:14.821Z,25.78
2019-05-26T09:05:44.542Z,25.93
2019-05-26T09:08:14.548Z,25.91
2019-05-26T09:10:44.364Z,24.41
2019-05-26T09:13:14.625Z,26.14
2019-05-26T09:15:44.829Z,22.78
2019-05-26T09:18:14.717Z,20.66
2019-05-26T09:20:44.598Z,19.73
2019-05-26T09:23:14.340Z,21.14
2019-05-26T09:25:46.648Z,20.46
2019-05-26T09:28:16.751Z,21.51
2019-05-26T09:30:46.544Z,19.43
2019-05-26T09:33:16.826Z,20.36
2019-05-26T09:35:46.588Z,19.38
2019-05-26T09:38:16.305Z,19.29
2019-05-26T09:40:46.186Z,16.91
2019-05-26T09:43:16.885Z,17.89
2019-05-26T09:45:46.680Z,18.56
2019-05-26T09:48:17.020Z,19.89
2019-05-26T09:50:47.035Z,18.43
2019-05-26T09:53:17.216Z,17.70
2019-05-26T09:55:46.974Z,16.89
2019-05-26T09:58:16.791Z,18.53
2019-05-26T10:00:46.829Z,18.58
2019-05-26T10:03:16.699Z,23.11
2019-05-26T10:05:46.430Z,26.68
2019-05-26T10:08:16.142Z,21.92
2019-05-26T10:10:45.854Z,18.72
2019-05-26T10:13:30.591Z,19.61
2019-05-26T10:15:46.974Z,19.96
2019-05-26T10:18:16.683Z,19.26
2019-05-26T10:20:46.360Z,21.75
2019-05-26T10:23:16.048Z,21.53
2019-05-26T10:25:46.173Z,23.36
2019-05-26T10:28:15.994Z,20.71
2019-05-26T10:30:45.660Z,18.59
2019-05-26T10:33:15.293Z,16.03
2019-05-26T10:35:45.225Z,17.58
2019-05-26T10:38:14.860Z,16.48
2019-05-26T10:40:44.645Z,17.86
2019-05-26T10:43:14.516Z,22.31
2019-05-26T10:45:44.296Z,18.44
2019-05-26T10:48:14.187Z,22.91
2019-05-26T10:50:44.047Z,22.02
2019-05-26T10:53:13.707Z,19.70
2019-05-26T10:55:43.766Z,19.16
2019-05-26T10:58:13.501Z,21.48
2019-05-26T11:00:43.220Z,17.41
2019-05-26T11:03:12.840Z,17.02
2019-05-26T11:05:42.788Z,19.93
2019-05-26T11:08:12.809Z,18.47
2019-05-26T11:10:42.794Z,18.22
2019-05-26T11:13:12.556Z,20.43
2019-05-26T11:15:42.235Z,18.38
2019-05-26T11:18:12.179Z,17.27
2019-05-26T11:20:43.419Z,16.85
2019-05-26T11:23:13.111Z,17.56
2019-05-26T11:25:43.784Z,17.64
2019-05-26T11:28:13.392Z,16.81
2019-05-26T11:30:43.463Z,20.32
2019-05-26T11:33:13.166Z,18.62
2019-05-26T11:35:42.941Z,14.94
2019-05-26T11:38:12.624Z,15.56
2019-05-26T11:40:42.311Z,15.69
2019-05-26T11:43:16.696Z,17.58
2019-05-26T11:45:43.411Z,22.67
2019-05-26T11:48:13.063Z,22.93
2019-05-26T11:50:43.449Z,20.35
2019-05-26T11:53:13.083Z,19.04
2019-05-26T11:55:43.980Z,19.02
2019-05-26T11:58:13.653Z,18.44
2019-05-26T12:00:44.795Z,18.88
2019-05-26T12:03:14.449Z,21.07
2019-05-26T12:05:44.043Z,20.32
2019-05-26T12:08:13.696Z,23.37
2019-05-26T12:10:43.363Z,25.27
2019-05-26T12:13:13.156Z,25.59
2019-05-26T12:15:42.790Z,20.34
2019-05-26T12:18:12.585Z,17.51
2019-05-26T12:20:42.434Z,19.82
2019-05-26T12:23:12.070Z,15.74
2019-05-26T12:25:42.369Z,14.90
2019-05-26T12:28:12.091Z,16.59
2019-05-26T12:30:41.829Z,17.77
2019-05-26T12:33:11.676Z,18.33
2019-05-26T12:35:47.466Z,17.38
2019-05-26T12:38:17.244Z,16.22
2019-05-26T12:40:47.109Z,18.46
2019-05-26T12:43:16.863Z,18.42
2019-05-26T12:45:46.602Z,18.86
2019-05-26T12:48:16.318Z,17.24
2019-05-26T12:50:46.080Z,18.55
2019-05-26T12:53:15.870Z,17.21
2019-05-26T12:55:45.514Z,18.91
2019-05-26T12:58:15.207Z,16.69
2019-05-26T13:00:49.703Z,16.93
2019-05-26T13:03:16.214Z,19.49
2019-05-26T13:05:46.056Z,21.09
2019-05-26T13:08:15.691Z,22.29
2019-05-26T13:10:45.346Z,21.42
2019-05-26T13:13:15.025Z,19.82
2019-05-26T13:15:44.834Z,15.73
2019-05-26T13:18:14.453Z,17.06
2019-05-26T13:20:44.141Z,17.86
2019-05-26T13:23:13.752Z,19.30
2019-05-26T13:25:44.372Z,19.46
2019-05-26T13:28:14.331Z,19.35
2019-05-26T13:30:44.109Z,18.54
2019-05-26T13:33:15.093Z,18.84
2019-05-26T13:35:44.830Z,17.79
2019-05-26T13:38:14.599Z,18.45
2019-05-26T13:40:44.223Z,18.02
2019-05-26T13:43:13.911Z,16.03
2019-05-26T13:45:43.929Z,17.80
2019-05-26T13:48:13.674Z,19.98
2019-05-26T13:50:43.405Z,20.67
2019-05-26T13:53:13.099Z,19.22
2019-05-26T13:55:42.814Z,19.24
2019-05-26T13:58:12.878Z,18.67
2019-05-26T14:00:42.564Z,18.58
2019-05-26T14:03:12.754Z,18.55
2019-05-26T14:05:42.331Z,17.55
2019-05-26T14:08:12.115Z,19.34
2019-05-26T14:10:42.096Z,19.00
2019-05-26T14:13:11.922Z,19.50
2019-05-26T14:15:41.746Z,18.79
2019-05-26T14:18:12.007Z,18.39
2019-05-26T14:20:43.006Z,18.35
2019-05-26T14:23:13.347Z,18.36
2019-05-26T14:25:43.201Z,19.26
2019-05-26T14:28:13.063Z,22.42
2019-05-26T14:30:43.233Z,22.66
2019-05-26T14:33:13.239Z,24.15
2019-05-26T14:35:42.990Z,23.88
2019-05-26T14:38:12.838Z,23.40
2019-05-26T14:40:42.660Z,26.12
2019-05-26T14:43:12.469Z,26.08
2019-05-26T14:45:53.009Z,25.43
2019-05-26T14:48:13.584Z,26.50
2019-05-26T14:50:44.210Z,27.02
2019-05-26T14:53:13.748Z,27.12
2019-05-26T14:55:43.723Z,28.31
2019-05-26T14:58:16.249Z,29.08
2019-05-26T15:00:45.033Z,28.46
2019-05-26T15:03:34.103Z,27.57
2019-05-26T15:06:06.238Z,28.06
2019-05-26T15:08:36.079Z,30.42
2019-05-26T15:11:05.883Z,30.83
2019-05-26T15:13:35.510Z,32.06
2019-05-26T15:16:10.089Z,30.44
2019-05-26T15:18:36.721Z,33.38
2019-05-26T15:21:06.559Z,32.41
2019-05-26T15:23:36.215Z,32.92
2019-05-26T15:26:05.888Z,33.31
2019-05-26T15:28:35.485Z,32.72
2019-05-26T15:31:05.540Z,33.06
2019-05-26T15:33:35.182Z,33.86
2019-05-26T15:36:05.006Z,33.25
2019-05-26T15:38:43.062Z,34.67
2019-05-26T15:41:06.237Z,33.60
2019-05-26T15:43:35.775Z,33.08
2019-05-26T15:46:05.545Z,32.09
2019-05-26T15:48:35.456Z,31.84
2019-05-26T15:51:05.688Z,32.06
2019-05-26T15:53:35.294Z,32.77
2019-05-26T15:56:05.505Z,32.22
2019-05-26T15:58:35.191Z,32.34
2019-05-26T16:01:04.997Z,33.47
2019-05-26T16:03:34.680Z,33.42
2019-05-26T16:06:04.497Z,33.41
2019-05-26T16:08:34.053Z,33.16
2019-05-26T16:11:03.705Z,33.65
2019-05-26T16:13:33.307Z,33.84
2019-05-26T16:16:02.928Z,33.56
2019-05-26T16:18:32.522Z,34.00
2019-05-26T16:21:03.340Z,34.25
2019-05-26T16:23:33.397Z,34.31
2019-05-26T16:26:03.071Z,34.49
2019-05-26T16:28:32.911Z,32.85
2019-05-26T16:31:03.009Z,33.12
2019-05-26T16:33:32.719Z,32.79
2019-05-26T16:36:02.912Z,33.39
2019-05-26T16:38:32.456Z,33.05
2019-05-26T16:41:02.106Z,33.50
2019-05-26T16:43:31.692Z,32.78
2019-05-26T16:46:01.302Z,32.73
2019-05-26T16:48:30.966Z,33.77
2019-05-26T16:51:00.575Z,34.07
2019-05-26T16:53:30.260Z,33.78
2019-05-26T16:55:59.939Z,34.56
2019-05-26T16:58:29.563Z,33.79
2019-05-26T17:00:59.218Z,34.38
2019-05-26T17:03:28.943Z,34.05
2019-05-26T17:06:07.531Z,34.54
2019-05-26T17:08:29.851Z,34.43
2019-05-26T17:10:59.454Z,35.17
2019-05-26T17:13:28.987Z,34.34
2019-05-26T17:15:58.588Z,34.82
2019-05-26T17:18:28.247Z,34.96
2019-05-26T17:20:57.794Z,35.27
2019-05-26T17:23:27.614Z,34.62
2019-05-26T17:25:57.266Z,35.18
2019-05-26T17:28:27.022Z,36.34
2019-05-26T17:30:56.565Z,34.90
2019-05-26T17:33:26.226Z,35.72
2019-05-26T17:35:55.928Z,35.07
2019-05-26T17:38:25.867Z,35.04
2019-05-26T17:40:55.538Z,35.45
2019-05-26T17:43:25.269Z,35.77
2019-05-26T17:45:54.934Z,36.61
2019-05-26T17:48:24.773Z,36.45
2019-05-26T17:50:54.549Z,36.90
2019-05-26T17:53:24.096Z,37.25
2019-05-26T17:55:55.731Z,38.02
2019-05-26T17:58:25.340Z,37.90
2019-05-26T18:00:55.112Z,36.91
2019-05-26T18:03:25.003Z,37.54
2019-05-26T18:05:54.683Z,38.40
2019-05-26T18:08:25.298Z,38.13
2019-05-26T18:10:58.351Z,38.98
2019-05-26T18:13:28.373Z,39.36
2019-05-26T18:15:58.569Z,38.46
2019-05-26T18:18:28.132Z,40.24
2019-05-26T18:20:57.803Z,40.40
2019-05-26T18:23:28.394Z,41.06
2019-05-26T18:25:58.089Z,41.37
2019-05-26T18:28:28.363Z,41.98
2019-05-26T18:30:58.215Z,41.99
2019-05-26T18:33:28.166Z,43.47
2019-05-26T18:35:58.119Z,46.64
2019-05-26T18:38:27.858Z,46.59
2019-05-26T18:40:57.736Z,49.33
2019-05-26T18:43:27.402Z,49.52
2019-05-26T18:45:57.377Z,51.10
2019-05-26T18:48:27.285Z,52.35
2019-05-26T18:50:57.179Z,53.93
2019-05-26T18:53:29.687Z,53.07
2019-05-26T18:55:58.309Z,52.87
2019-05-26T18:58:27.872Z,51.75
2019-05-26T19:00:57.805Z,53.41
2019-05-26T19:03:27.613Z,54.89
2019-05-26T19:05:57.484Z,55.28
2019-05-26T19:08:27.684Z,55.76
2019-05-26T19:11:00.219Z,56.33
2019-05-26T19:13:29.841Z,55.74
2019-05-26T19:15:59.658Z,56.85
2019-05-26T19:18:29.190Z,56.31
2019-05-26T19:20:58.803Z,56.80
2019-05-26T19:23:28.859Z,56.07
2019-05-26T19:25:59.003Z,56.04
2019-05-26T19:28:28.924Z,57.46
2019-05-26T19:30:58.775Z,57.18
2019-05-26T19:33:28.435Z,57.59
2019-05-26T19:35:58.104Z,57.75
2019-05-26T19:38:28.201Z,59.26
2019-05-26T19:40:57.890Z,60.34
2019-05-26T19:43:27.738Z,60.57
2019-05-26T19:45:59.333Z,60.31
2019-05-26T19:48:36.790Z,59.95
2019-05-26T19:51:00.533Z,60.68
2019-05-26T19:53:30.333Z,60.05
2019-05-26T19:56:00.509Z,60.56
2019-05-26T19:58:30.680Z,61.54
2019-05-26T20:01:00.635Z,62.24
2019-05-26T20:03:30.322Z,61.17
2019-05-26T20:06:00.605Z,61.68
2019-05-26T20:08:30.589Z,62.80
2019-05-26T20:11:02.911Z,61.79
2019-05-26T20:13:32.897Z,62.54
2019-05-26T20:16:02.482Z,62.92
2019-05-26T20:18:32.263Z,63.18
2019-05-26T20:21:02.198Z,62.22
2019-05-26T20:23:32.089Z,62.23
2019-05-26T20:26:02.843Z,61.96
2019-05-26T20:28:32.952Z,62.30
2019-05-26T20:31:03.121Z,62.45
2019-05-26T20:33:34.753Z,63.11
2019-05-26T20:36:04.543Z,63.95
2019-05-26T20:38:34.755Z,63.43
2019-05-26T20:41:04.364Z,64.32
2019-05-26T20:43:33.978Z,65.01
2019-05-26T20:46:03.570Z,64.74
2019-05-26T20:48:33.102Z,64.84
2019-05-26T20:51:02.714Z,64.46
2019-05-26T20:53:32.305Z,64.00
2019-05-26T20:56:01.990Z,64.02
2019-05-26T20:58:31.531Z,64.97
2019-05-26T21:01:01.491Z,65.55
2019-05-26T21:03:31.337Z,66.49
2019-05-26T21:06:00.953Z,67.56
2019-05-26T21:08:30.618Z,67.64
2019-05-26T21:11:00.296Z,67.10
2019-05-26T21:13:30.024Z,65.37
2019-05-26T21:15:59.685Z,66.20
2019-05-26T21:18:29.702Z,66.64
2019-05-26T21:20:59.290Z,66.79
2019-05-26T21:23:28.960Z,67.36
2019-05-26T21:25:58.702Z,67.05
2019-05-26T21:28:28.307Z,66.78
2019-05-26T21:30:57.935Z,66.03
2019-05-26T21:33:27.509Z,65.90
2019-05-26T21:35:57.119Z,66.75
2019-05-26T21:38:26.697Z,66.65
2019-05-26T21:40:56.240Z,67.54
2019-05-26T21:43:25.940Z,67.74
2019-05-26T21:45:55.707Z,68.70
2019-05-26T21:48:25.245Z,68.91
2019-05-26T21:50:54.786Z,68.55
2019-05-26T21:53:24.591Z,68.18
2019-05-26T21:55:54.198Z,67.25
2019-05-26T21:58:23.746Z,67.99
2019-05-26T22:00:54.152Z,68.24
2019-05-26T22:03:24.219Z,69.12
2019-05-26T22:05:53.841Z,69.94
2019-05-26T22:08:23.789Z,70.52
2019-05-26T22:10:53.423Z,68.37
2019-05-26T22:13:23.031Z,68.65
2019-05-26T22:15:52.625Z,68.95
2019-05-26T22:18:22.238Z,68.82
2019-05-26T22:20:51.771Z,68.16
2019-05-26T22:23:21.564Z,69.18
2019-05-26T22:25:51.179Z,70.13
2019-05-26T22:28:20.787Z,69.39
2019-05-26T22:30:50.419Z,69.07
2019-05-26T22:33:20.064Z,69.18
2019-05-26T22:35:49.697Z,67.79
2019-05-26T22:38:19.262Z,68.49
2019-05-26T22:40:48.873Z,68.12
2019-05-26T22:43:18.414Z,68.10
2019-05-26T22:45:48.072Z,68.38
2019-05-26T22:48:17.850Z,68.80
2019-05-26T22:50:47.354Z,68.18
2019-05-26T22:53:17.069Z,69.70
2019-05-26T22:55:46.680Z,70.67
2019-05-26T22:58:16.216Z,70.92
2019-05-26T23:00:45.871Z,71.07
2019-05-26T23:03:15.429Z,69.90
2019-05-26T23:05:45.041Z,70.09
2019-05-26T23:08:14.619Z,70.56
2019-05-26T23:10:44.224Z,70.58
2019-05-26T23:13:13.774Z,70.56
2019-05-26T23:15:44.201Z,70.74
2019-05-26T23:18:13.743Z,70.04
2019-05-26T23:20:43.288Z,71.00
2019-05-26T23:23:12.854Z,70.98
2019-05-26T23:25:42.478Z,72.33
2019-05-26T23:28:12.009Z,73.09
2019-05-26T23:30:41.671Z,72.62
2019-05-26T23:33:11.352Z,73.39
2019-05-26T23:35:40.890Z,74.02
2019-05-26T23:38:10.471Z,74.96
2019-05-26T23:40:40.071Z,72.32
2019-05-26T23:43:09.677Z,72.59
2019-05-26T23:45:39.259Z,71.87
2019-05-26T23:48:08.793Z,73.00
2019-05-26T23:50:38.355Z,71.71
2019-05-26T23:53:08.008Z,72.06
2019-05-26T23:55:37.550Z,71.97
2019-05-26T23:58:07.087Z,72.93
